createdAt,value
2022-11-13T00:00:54.682Z,0.00
2022-11-13T00:01:54.626Z,0.00
2022-11-13T00:02:54.604Z,0.00
2022-11-13T00:03:54.613Z,0.00
2022-11-13T00:04:54.468Z,0.00
2022-11-13T00:05:54.398Z,0.00
2022-11-13T00:06:58.915Z,0.00
2022-11-13T00:07:54.284Z,0.00
2022-11-13T00:08:54.236Z,0.00
2022-11-13T00:09:54.226Z,0.00
2022-11-13T00:10:54.126Z,0.00
2022-11-13T00:11:54.054Z,0.00
2022-11-13T00:12:54.001Z,0.00
2022-11-13T00:13:53.943Z,0.00
2022-11-13T00:14:53.885Z,0.00
2022-11-13T00:15:53.844Z,0.00
2022-11-13T00:16:53.780Z,0.00
2022-11-13T00:17:53.714Z,0.00
2022-11-13T00:18:53.663Z,0.00
2022-11-13T00:19:53.711Z,0.00
2022-11-13T00:20:53.544Z,0.00
2022-11-13T00:21:53.487Z,0.00
2022-11-13T00:22:53.427Z,0.00
2022-11-13T00:23:53.372Z,0.00
2022-11-13T00:24:53.334Z,0.00
2022-11-13T00:25:53.274Z,0.00
2022-11-13T00:26:53.207Z,0.00
2022-11-13T00:27:53.144Z,0.00
2022-11-13T00:28:53.089Z,0.00
2022-11-13T00:29:53.030Z,0.00
2022-11-13T00:30:52.989Z,0.00
2022-11-13T00:31:52.916Z,0.00
2022-11-13T00:32:52.877Z,0.00
2022-11-13T00:34:52.746Z,0.00
2022-11-13T00:35:52.780Z,0.00
2022-11-13T00:36:52.657Z,0.00
2022-11-13T00:37:52.572Z,0.00
2022-11-13T00:38:52.517Z,0.00
2022-11-13T00:39:55.703Z,0.00
2022-11-13T00:40:52.404Z,0.00
2022-11-13T00:41:52.412Z,0.00
2022-11-13T00:42:52.306Z,0.00
2022-11-13T00:43:52.253Z,0.00
2022-11-13T00:44:52.189Z,0.00
2022-11-13T00:45:52.123Z,0.00
2022-11-13T00:46:52.081Z,0.00
2022-11-13T00:47:52.013Z,0.00
2022-11-13T00:48:51.960Z,0.00
2022-11-13T00:49:51.890Z,0.00
2022-11-13T00:50:51.832Z,0.00
2022-11-13T00:51:51.895Z,0.00
2022-11-13T00:52:51.718Z,0.00
2022-11-13T00:53:51.660Z,0.00
2022-11-13T00:54:51.606Z,0.00
2022-11-13T00:55:51.548Z,0.00
2022-11-13T00:56:51.505Z,0.00
2022-11-13T00:57:51.446Z,0.00
2022-11-13T00:58:51.379Z,0.00
2022-11-13T00:59:51.317Z,0.00
2022-11-13T01:00:51.260Z,0.00
2022-11-13T01:01:51.286Z,0.00
2022-11-13T01:02:51.160Z,0.00
2022-11-13T01:03:51.091Z,0.00
2022-11-13T01:04:51.032Z,0.00
2022-11-13T01:05:50.975Z,0.00
2022-11-13T01:06:50.951Z,0.00
2022-11-13T01:07:50.992Z,0.00
2022-11-13T01:08:50.803Z,0.00
2022-11-13T01:09:50.762Z,0.00
2022-11-13T01:10:53.787Z,0.00
2022-11-13T01:11:50.630Z,0.00
2022-11-13T01:12:50.588Z,0.00
2022-11-13T01:13:50.517Z,0.00
2022-11-13T01:14:50.478Z,0.00
2022-11-13T01:15:50.401Z,0.00
2022-11-13T01:16:50.347Z,0.00
2022-11-13T01:17:50.303Z,0.00
2022-11-13T01:18:50.229Z,0.00
2022-11-13T01:19:50.181Z,0.00
2022-11-13T01:20:50.114Z,0.00
2022-11-13T01:21:50.099Z,0.00
2022-11-13T01:22:50.000Z,0.00
2022-11-13T01:23:50.051Z,0.00
2022-11-13T01:24:49.884Z,0.00
2022-11-13T01:25:49.831Z,0.00
2022-11-13T01:26:49.797Z,0.00
2022-11-13T01:27:49.718Z,0.00
2022-11-13T01:28:49.671Z,0.00
2022-11-13T01:29:49.597Z,0.00
2022-11-13T01:30:49.542Z,0.00
2022-11-13T01:31:49.489Z,0.00
2022-11-13T01:32:49.426Z,0.00
2022-11-13T01:33:49.384Z,0.00
2022-11-13T01:34:49.325Z,0.00
2022-11-13T01:35:49.253Z,0.00
2022-11-13T01:36:49.214Z,0.00
2022-11-13T01:37:49.137Z,0.00
2022-11-13T01:38:49.080Z,0.00
2022-11-13T01:39:49.117Z,0.00
2022-11-13T01:40:48.965Z,0.00
2022-11-13T01:41:50.106Z,0.00
2022-11-13T01:42:48.865Z,0.00
2022-11-13T01:43:48.806Z,0.00
2022-11-13T01:44:48.736Z,0.00
2022-11-13T01:45:48.676Z,0.00
2022-11-13T01:46:48.632Z,0.00
2022-11-13T01:47:48.576Z,0.00
2022-11-13T01:48:48.503Z,0.00
2022-11-13T01:49:48.449Z,0.00
2022-11-13T01:50:48.389Z,0.00
2022-11-13T01:51:48.340Z,0.00
2022-11-13T01:52:48.290Z,0.00
2022-11-13T01:53:48.223Z,0.00
2022-11-13T01:54:48.160Z,0.00
2022-11-13T01:55:48.191Z,0.00
2022-11-13T01:56:48.055Z,0.00
2022-11-13T01:57:47.999Z,0.00
2022-11-13T01:58:47.926Z,0.00
2022-11-13T01:59:47.869Z,0.00
2022-11-13T02:00:47.811Z,0.00
2022-11-13T02:01:47.806Z,0.00
2022-11-13T02:02:47.712Z,0.00
2022-11-13T02:03:47.640Z,0.00
2022-11-13T02:04:47.579Z,0.00
2022-11-13T02:05:47.530Z,0.00
2022-11-13T02:06:47.494Z,0.00
2022-11-13T02:07:47.420Z,0.00
2022-11-13T02:08:47.350Z,0.00
2022-11-13T02:09:47.304Z,0.00
2022-11-13T02:10:48.188Z,0.00
2022-11-13T02:11:47.267Z,0.00
2022-11-13T02:12:47.132Z,0.00
2022-11-13T02:13:47.058Z,0.00
2022-11-13T02:14:47.001Z,0.00
2022-11-13T02:15:46.968Z,0.00
2022-11-13T02:16:46.886Z,0.00
2022-11-13T02:17:46.843Z,0.00
2022-11-13T02:18:46.767Z,0.00
2022-11-13T02:19:46.727Z,0.00
2022-11-13T02:20:46.670Z,0.00
2022-11-13T02:21:46.597Z,0.00
2022-11-13T02:22:46.538Z,0.00
2022-11-13T02:23:46.486Z,0.00
2022-11-13T02:24:48.877Z,0.00
2022-11-13T02:25:46.366Z,0.00
2022-11-13T02:26:46.308Z,0.00
2022-11-13T02:27:46.341Z,0.00
2022-11-13T02:28:46.217Z,0.00
2022-11-13T02:29:46.138Z,0.00
2022-11-13T02:30:46.075Z,0.00
2022-11-13T02:31:46.017Z,0.00
2022-11-13T02:32:45.960Z,0.00
2022-11-13T02:33:45.903Z,0.00
2022-11-13T02:34:45.863Z,0.00
2022-11-13T02:35:45.786Z,0.00
2022-11-13T02:36:45.729Z,0.00
2022-11-13T02:37:45.686Z,0.00
2022-11-13T02:38:45.620Z,0.00
2022-11-13T02:39:45.553Z,0.00
2022-11-13T02:40:45.511Z,0.00
2022-11-13T02:41:45.441Z,0.00
2022-11-13T02:42:45.383Z,0.00
2022-11-13T02:43:45.428Z,0.00
2022-11-13T02:44:45.281Z,0.00
2022-11-13T02:45:45.205Z,0.00
2022-11-13T02:46:45.146Z,0.00
2022-11-13T02:47:45.093Z,0.00
2022-11-13T02:48:45.047Z,0.00
2022-11-13T02:49:44.974Z,0.00
2022-11-13T02:50:44.931Z,0.00
2022-11-13T02:51:44.898Z,0.00
2022-11-13T02:52:44.839Z,0.00
2022-11-13T02:53:44.747Z,0.00
2022-11-13T02:54:44.685Z,0.00
2022-11-13T02:55:44.641Z,0.00
2022-11-13T02:56:44.584Z,0.00
2022-11-13T02:57:44.510Z,0.00
2022-11-13T02:58:44.456Z,0.00
2022-11-13T02:59:44.485Z,0.00
2022-11-13T03:00:44.351Z,0.00
2022-11-13T03:01:44.314Z,0.00
2022-11-13T03:02:44.230Z,0.00
2022-11-13T03:03:59.506Z,0.00
2022-11-13T03:05:10.766Z,0.00
2022-11-13T03:05:44.049Z,0.00
2022-11-13T03:06:44.092Z,0.00
2022-11-13T03:07:43.989Z,0.00
2022-11-13T03:08:43.874Z,0.00
2022-11-13T03:09:43.831Z,0.00
2022-11-13T03:10:43.773Z,0.00
2022-11-13T03:11:43.714Z,0.00
2022-11-13T03:12:43.640Z,0.00
2022-11-13T03:13:43.584Z,0.00
2022-11-13T03:14:43.525Z,0.00
2022-11-13T03:15:43.559Z,0.00
2022-11-13T03:16:43.431Z,0.00
2022-11-13T03:17:43.360Z,0.00
2022-11-13T03:18:43.298Z,0.00
2022-11-13T03:19:43.237Z,0.00
2022-11-13T03:20:43.178Z,0.00
2022-11-13T03:21:43.137Z,0.00
2022-11-13T03:22:43.060Z,0.00
2022-11-13T03:23:43.017Z,0.00
2022-11-13T03:24:42.946Z,0.00
2022-11-13T03:25:42.886Z,0.00
2022-11-13T03:26:42.853Z,0.00
2022-11-13T03:27:42.775Z,0.00
2022-11-13T03:28:42.716Z,0.00
2022-11-13T03:29:42.655Z,0.00
2022-11-13T03:30:42.596Z,0.00
2022-11-13T03:31:42.628Z,0.00
2022-11-13T03:32:42.499Z,0.00
2022-11-13T03:33:42.421Z,0.00
2022-11-13T03:34:42.362Z,0.00
2022-11-13T03:35:46.674Z,0.00
2022-11-13T03:36:51.283Z,0.00
2022-11-13T03:37:42.192Z,0.00
2022-11-13T03:38:42.131Z,0.00
2022-11-13T03:39:42.075Z,0.00
2022-11-13T03:40:42.014Z,0.00
2022-11-13T03:41:41.954Z,0.00
2022-11-13T03:42:41.916Z,0.00
2022-11-13T03:43:41.840Z,0.00
2022-11-13T03:44:41.783Z,0.00
2022-11-13T03:45:41.724Z,0.00
2022-11-13T03:46:41.667Z,0.00
2022-11-13T03:47:41.696Z,0.00
2022-11-13T03:48:41.564Z,0.00
2022-11-13T03:49:41.492Z,0.00
2022-11-13T03:50:45.349Z,0.00
2022-11-13T03:51:41.373Z,0.00
2022-11-13T03:52:41.329Z,0.00
2022-11-13T03:53:41.263Z,0.00
2022-11-13T03:54:41.203Z,0.00
2022-11-13T03:55:41.155Z,0.00
2022-11-13T03:56:41.082Z,0.00
2022-11-13T03:57:41.024Z,0.00
2022-11-13T03:58:42.830Z,0.00
2022-11-13T03:59:40.909Z,0.00
2022-11-13T04:00:40.866Z,0.00
2022-11-13T04:01:40.862Z,0.00
2022-11-13T04:02:40.750Z,0.00
2022-11-13T04:03:40.786Z,0.00
2022-11-13T04:04:40.623Z,0.00
2022-11-13T04:05:40.564Z,0.00
2022-11-13T04:06:40.601Z,0.00
2022-11-13T04:07:40.447Z,0.00
2022-11-13T04:08:40.403Z,0.00
2022-11-13T04:09:40.329Z,0.00
2022-11-13T04:10:40.270Z,0.00
2022-11-13T04:11:40.213Z,0.00
2022-11-13T04:12:40.150Z,0.00
2022-11-13T04:13:40.096Z,0.00
2022-11-13T04:14:40.050Z,0.00
2022-11-13T04:15:39.981Z,0.00
2022-11-13T04:16:39.920Z,0.00
2022-11-13T04:17:39.861Z,0.00
2022-11-13T04:18:39.802Z,0.00
2022-11-13T04:19:39.849Z,0.00
2022-11-13T04:20:39.706Z,0.00
2022-11-13T04:21:39.635Z,0.00
2022-11-13T04:22:39.571Z,0.00
2022-11-13T04:23:39.512Z,0.00
2022-11-13T04:24:39.472Z,0.00
2022-11-13T04:25:39.397Z,0.00
2022-11-13T04:26:39.338Z,0.00
2022-11-13T04:27:39.299Z,0.00
2022-11-13T04:28:39.221Z,0.00
2022-11-13T04:29:39.165Z,0.00
2022-11-13T04:30:39.121Z,0.00
2022-11-13T04:31:39.069Z,0.00
2022-11-13T04:32:38.989Z,0.00
2022-11-13T04:33:38.933Z,0.00
2022-11-13T04:34:38.870Z,0.00
2022-11-13T04:35:38.925Z,0.00
2022-11-13T04:36:38.770Z,0.00
2022-11-13T04:37:38.697Z,0.00
2022-11-13T04:38:38.639Z,0.00
2022-11-13T04:39:38.582Z,0.00
2022-11-13T04:40:38.523Z,0.00
2022-11-13T04:41:38.481Z,0.00
2022-11-13T04:42:38.410Z,0.00
2022-11-13T04:43:38.347Z,0.00
2022-11-13T04:44:38.292Z,0.00
2022-11-13T04:45:38.248Z,0.00
2022-11-13T04:46:38.172Z,0.00
2022-11-13T04:47:38.116Z,0.00
2022-11-13T04:48:38.059Z,0.00
2022-11-13T04:49:38.001Z,0.00
2022-11-13T04:50:37.955Z,0.00
2022-11-13T04:51:37.978Z,0.00
2022-11-13T04:52:37.838Z,0.00
2022-11-13T04:53:37.768Z,0.00
2022-11-13T04:54:37.706Z,0.00
2022-11-13T04:55:37.651Z,0.00
2022-11-13T04:56:37.605Z,0.00
2022-11-13T04:57:37.534Z,0.00
2022-11-13T04:58:37.475Z,0.00
2022-11-13T04:59:37.423Z,0.00
2022-11-13T05:00:37.360Z,0.00
2022-11-13T05:01:37.353Z,0.00
2022-11-13T05:02:37.243Z,0.00
2022-11-13T05:03:37.185Z,0.00
2022-11-13T05:04:37.141Z,0.00
2022-11-13T05:05:37.083Z,0.00
2022-11-13T05:06:37.091Z,0.00
2022-11-13T05:07:37.072Z,0.00
2022-11-13T05:08:36.893Z,0.00
2022-11-13T05:09:36.837Z,0.00
2022-11-13T05:10:36.777Z,0.00
2022-11-13T05:11:36.721Z,0.00
2022-11-13T05:12:36.674Z,0.00
2022-11-13T05:13:36.617Z,0.00
2022-11-13T05:14:36.545Z,0.00
2022-11-13T05:15:36.497Z,0.00
2022-11-13T05:16:36.440Z,0.00
2022-11-13T05:17:36.373Z,0.00
2022-11-13T05:18:36.309Z,0.00
2022-11-13T05:19:36.255Z,0.00
2022-11-13T05:20:36.196Z,0.00
2022-11-13T05:21:36.155Z,0.00
2022-11-13T05:22:36.078Z,0.00
2022-11-13T05:23:36.111Z,0.00
2022-11-13T05:24:35.958Z,0.00
2022-11-13T05:25:35.902Z,0.00
2022-11-13T05:26:35.843Z,0.00
2022-11-13T05:27:35.800Z,0.00
2022-11-13T05:28:35.725Z,0.00
2022-11-13T05:29:35.684Z,0.00
2022-11-13T05:30:35.613Z,0.00
2022-11-13T05:31:35.556Z,0.00
2022-11-13T05:32:35.494Z,0.00
2022-11-13T05:33:35.435Z,0.00
2022-11-13T05:34:35.390Z,0.00
2022-11-13T05:35:35.337Z,0.00
2022-11-13T05:36:35.268Z,0.00
2022-11-13T05:37:35.216Z,0.00
2022-11-13T05:38:35.146Z,0.00
2022-11-13T05:39:35.177Z,0.00
2022-11-13T05:40:35.038Z,0.00
2022-11-13T05:41:34.969Z,0.00
2022-11-13T05:42:34.909Z,0.00
2022-11-13T05:43:34.852Z,0.00
2022-11-13T05:44:34.812Z,0.00
2022-11-13T05:45:34.734Z,0.00
2022-11-13T05:46:34.675Z,0.00
2022-11-13T05:47:34.618Z,0.00
2022-11-13T05:48:34.573Z,0.00
2022-11-13T05:49:34.499Z,0.00
2022-11-13T05:50:34.442Z,0.00
2022-11-13T05:51:34.390Z,0.00
2022-11-13T05:52:34.327Z,4.00
2022-11-13T05:53:34.283Z,0.00
2022-11-13T05:54:34.209Z,0.00
2022-11-13T05:55:34.258Z,0.00
2022-11-13T05:56:34.090Z,4.00
2022-11-13T05:57:34.051Z,4.00
2022-11-13T05:58:33.988Z,4.00
2022-11-13T05:59:33.918Z,4.00
2022-11-13T06:00:33.858Z,4.00
2022-11-13T06:01:33.862Z,8.00
2022-11-13T06:02:33.742Z,8.00
2022-11-13T06:03:33.685Z,8.00
2022-11-13T06:04:33.622Z,12.00
2022-11-13T06:05:33.567Z,12.00
2022-11-13T06:06:33.520Z,16.00
2022-11-13T06:07:33.448Z,20.00
2022-11-13T06:08:33.391Z,24.00
2022-11-13T06:09:33.329Z,28.00
2022-11-13T06:10:33.291Z,32.00
2022-11-13T06:11:33.312Z,36.00
2022-11-13T06:12:33.169Z,44.00
2022-11-13T06:13:33.099Z,52.00
2022-11-13T06:14:33.052Z,56.00
2022-11-13T06:15:32.980Z,64.00
2022-11-13T06:16:32.937Z,72.00
2022-11-13T06:17:32.866Z,80.00
2022-11-13T06:18:33.270Z,92.00
2022-11-13T06:19:32.762Z,100.00
2022-11-13T06:20:32.688Z,112.00
2022-11-13T06:21:32.643Z,124.00
2022-11-13T06:22:32.571Z,136.00
2022-11-13T06:23:32.513Z,148.00
2022-11-13T06:24:32.456Z,164.00
2022-11-13T06:25:32.396Z,180.00
2022-11-13T06:26:32.348Z,192.00
2022-11-13T06:27:32.373Z,208.00
2022-11-13T06:28:32.220Z,224.00
2022-11-13T06:29:32.173Z,244.00
2022-11-13T06:30:32.102Z,260.00
2022-11-13T06:31:32.057Z,280.00
2022-11-13T06:32:31.984Z,300.00
2022-11-13T06:33:31.929Z,324.00
2022-11-13T06:34:31.867Z,344.00
2022-11-13T06:35:31.807Z,368.00
2022-11-13T06:36:31.764Z,388.00
2022-11-13T06:37:34.689Z,412.00
2022-11-13T06:38:32.024Z,436.00
2022-11-13T06:39:31.575Z,460.00
2022-11-13T06:40:31.515Z,484.00
2022-11-13T06:41:31.531Z,512.00
2022-11-13T06:42:31.397Z,540.00
2022-11-13T06:43:31.449Z,568.00
2022-11-13T06:44:31.281Z,592.00
2022-11-13T06:45:31.236Z,624.00
2022-11-13T06:46:31.230Z,652.00
2022-11-13T06:47:31.106Z,684.00
2022-11-13T06:48:31.356Z,712.00
2022-11-13T06:49:31.001Z,748.00
2022-11-13T06:50:30.928Z,780.00
2022-11-13T06:51:30.888Z,812.00
2022-11-13T06:52:30.814Z,844.00
2022-11-13T06:53:30.757Z,880.00
2022-11-13T06:54:30.694Z,920.00
2022-11-13T06:55:30.649Z,956.00
2022-11-13T06:56:30.583Z,1000.00
2022-11-13T06:57:30.518Z,1048.00
2022-11-13T06:58:30.898Z,1092.00
2022-11-13T06:59:30.493Z,1132.00
2022-11-13T07:00:36.203Z,1176.00
2022-11-13T07:01:30.380Z,1224.00
2022-11-13T07:02:30.222Z,1272.00
2022-11-13T07:03:30.164Z,1324.00
2022-11-13T07:04:30.113Z,1380.00
2022-11-13T07:05:30.059Z,1436.00
2022-11-13T07:06:30.001Z,1496.00
2022-11-13T07:07:29.960Z,1552.00
2022-11-13T07:08:30.123Z,1608.00
2022-11-13T07:09:29.839Z,1704.00
2022-11-13T07:10:29.780Z,1808.00
2022-11-13T07:11:29.695Z,1944.00
2022-11-13T07:12:29.649Z,2116.00
2022-11-13T07:13:29.581Z,2316.00
2022-11-13T07:14:29.519Z,2596.00
2022-11-13T07:15:29.552Z,2984.00
2022-11-13T07:16:44.204Z,3608.00
2022-11-13T07:17:29.342Z,4752.00
2022-11-13T07:18:29.562Z,6852.00
2022-11-13T07:19:29.226Z,9132.00
2022-11-13T07:20:29.259Z,10760.00
2022-11-13T07:21:29.124Z,11356.00
2022-11-13T07:22:29.044Z,10796.00
2022-11-13T07:23:28.991Z,9736.00
2022-11-13T07:24:28.941Z,8948.00
2022-11-13T07:25:28.886Z,8756.00
2022-11-13T07:26:28.830Z,9320.00
2022-11-13T07:27:28.757Z,10848.00
2022-11-13T07:28:28.967Z,14080.00
2022-11-13T07:29:28.640Z,15136.00
2022-11-13T07:30:28.600Z,14016.00
2022-11-13T07:31:28.617Z,13112.00
2022-11-13T07:32:28.481Z,12480.00
2022-11-13T07:33:28.409Z,12668.00
2022-11-13T07:34:28.373Z,13484.00
2022-11-13T07:35:28.292Z,14528.00
2022-11-13T07:36:28.240Z,15232.00
2022-11-13T07:37:28.178Z,15456.00
2022-11-13T07:38:28.422Z,13672.00
2022-11-13T07:39:28.080Z,13692.00
2022-11-13T07:40:28.007Z,13536.00
2022-11-13T07:41:27.949Z,13832.00
2022-11-13T07:42:27.906Z,15680.00
2022-11-13T07:43:27.835Z,19584.00
2022-11-13T07:44:53.031Z,30336.00
2022-11-13T07:45:27.724Z,49952.00
2022-11-13T07:46:27.664Z,74976.00
2022-11-13T07:47:27.720Z,85280.00
2022-11-13T07:48:28.343Z,85728.00
2022-11-13T07:49:27.499Z,88800.00
2022-11-13T07:50:27.448Z,89312.00
2022-11-13T07:51:27.403Z,88640.00
2022-11-13T07:52:27.338Z,91552.00
2022-11-13T07:53:27.299Z,93952.00
2022-11-13T07:54:27.233Z,97632.00
2022-11-13T07:55:27.183Z,98176.00
2022-11-13T07:56:27.132Z,96832.00
2022-11-13T07:57:27.101Z,98144.00
2022-11-13T07:58:27.432Z,101728.00
2022-11-13T07:59:26.985Z,112320.00
2022-11-13T08:00:26.933Z,129536.00
2022-11-13T08:01:26.946Z,127488.00
2022-11-13T08:02:27.040Z,104000.00
2022-11-13T08:03:26.883Z,73248.00
2022-11-13T08:04:26.750Z,38208.00
2022-11-13T08:05:27.317Z,25376.00
2022-11-13T08:06:26.669Z,25024.00
2022-11-13T08:07:26.672Z,25408.00
2022-11-13T08:08:26.945Z,25568.00
2022-11-13T08:09:26.548Z,25472.00
2022-11-13T08:10:26.477Z,25632.00
2022-11-13T08:11:26.434Z,26176.00
2022-11-13T08:12:26.395Z,26400.00
2022-11-13T08:13:26.360Z,26688.00
2022-11-13T08:14:26.304Z,27328.00
2022-11-13T08:15:26.279Z,28000.00
2022-11-13T08:16:26.220Z,28128.00
2022-11-13T08:17:26.175Z,28640.00
2022-11-13T08:18:26.521Z,29184.00
2022-11-13T08:19:26.189Z,29472.00
2022-11-13T08:20:26.057Z,29984.00
2022-11-13T08:21:26.014Z,30496.00
2022-11-13T08:22:25.972Z,31712.00
2022-11-13T08:23:25.942Z,32608.00
2022-11-13T08:24:25.912Z,33504.00
2022-11-13T08:25:25.849Z,34464.00
2022-11-13T08:26:25.808Z,35296.00
2022-11-13T08:27:25.769Z,36512.00
2022-11-13T08:28:25.932Z,36384.00
2022-11-13T08:29:25.687Z,37824.00
2022-11-13T08:30:25.651Z,38560.00
2022-11-13T08:31:25.609Z,39936.00
2022-11-13T08:32:25.570Z,40864.00
2022-11-13T08:33:25.551Z,41856.00
2022-11-13T08:34:25.504Z,42912.00
2022-11-13T08:35:29.408Z,44128.00
2022-11-13T08:36:25.414Z,45120.00
2022-11-13T08:37:25.390Z,45152.00
2022-11-13T08:38:25.534Z,45792.00
2022-11-13T08:39:25.294Z,45824.00
2022-11-13T08:40:25.259Z,47040.00
2022-11-13T08:41:25.220Z,47616.00
2022-11-13T08:42:25.180Z,48832.00
2022-11-13T08:43:25.158Z,49088.00
2022-11-13T08:44:25.107Z,49984.00
2022-11-13T08:45:25.070Z,50880.00
2022-11-13T08:46:25.077Z,51168.00
2022-11-13T08:47:29.348Z,51040.00
2022-11-13T08:48:25.073Z,51872.00
2022-11-13T08:49:24.918Z,51520.00
2022-11-13T08:50:24.895Z,52000.00
2022-11-13T08:51:24.935Z,53120.00
2022-11-13T08:52:24.802Z,53088.00
2022-11-13T08:53:24.765Z,52864.00
2022-11-13T08:54:24.727Z,52832.00
2022-11-13T08:55:24.714Z,52544.00
2022-11-13T08:56:24.652Z,53472.00
2022-11-13T08:57:24.615Z,53184.00
2022-11-13T08:58:24.580Z,53120.00
2022-11-13T08:59:24.542Z,54144.00
2022-11-13T09:00:24.503Z,55424.00
2022-11-13T09:01:24.480Z,56384.00
2022-11-13T09:02:24.429Z,59328.00
2022-11-13T09:03:24.437Z,62304.00
2022-11-13T09:04:24.356Z,60960.00
2022-11-13T09:05:24.332Z,60640.00
2022-11-13T09:06:24.291Z,60384.00
2022-11-13T09:07:27.326Z,58624.00
2022-11-13T09:08:24.237Z,57024.00
2022-11-13T09:09:24.170Z,55584.00
2022-11-13T09:10:25.291Z,53792.00
2022-11-13T09:11:24.098Z,53312.00
2022-11-13T09:12:24.059Z,52384.00
2022-11-13T09:13:24.045Z,51168.00
2022-11-13T09:14:24.026Z,50880.00
2022-11-13T09:15:24.675Z,48672.00
2022-11-13T09:16:23.913Z,47136.00
2022-11-13T09:17:23.875Z,46272.00
2022-11-13T09:18:23.838Z,46208.00
2022-11-13T09:19:23.817Z,46848.00
2022-11-13T09:20:23.774Z,47648.00
2022-11-13T09:21:23.745Z,47296.00
2022-11-13T09:22:23.701Z,45440.00
2022-11-13T09:23:23.752Z,43328.00
2022-11-13T09:24:23.624Z,41248.00
2022-11-13T09:25:23.646Z,40736.00
2022-11-13T09:26:23.546Z,39936.00
2022-11-13T09:27:23.509Z,39520.00
2022-11-13T09:28:23.487Z,38752.00
2022-11-13T09:29:23.456Z,37824.00
2022-11-13T09:30:23.434Z,37344.00
2022-11-13T09:31:23.365Z,36320.00
2022-11-13T09:32:23.331Z,36224.00
2022-11-13T09:33:23.308Z,35712.00
2022-11-13T09:34:23.257Z,35232.00
2022-11-13T09:35:23.219Z,33696.00
2022-11-13T09:36:23.182Z,32608.00
2022-11-13T09:37:23.147Z,31936.00
2022-11-13T09:38:23.122Z,31584.00
2022-11-13T09:39:23.167Z,30432.00
2022-11-13T09:40:23.077Z,28768.00
2022-11-13T09:42:39.692Z,27840.00
2022-11-13T09:43:39.651Z,27840.00
2022-11-13T09:44:39.630Z,28640.00
2022-11-13T09:45:39.593Z,30816.00
2022-11-13T09:46:39.543Z,31456.00
2022-11-13T09:47:39.503Z,28768.00
2022-11-13T09:48:39.469Z,26144.00
2022-11-13T09:49:39.432Z,24992.00
2022-11-13T09:50:39.410Z,24352.00
2022-11-13T09:51:39.356Z,23488.00
2022-11-13T09:52:39.335Z,22880.00
2022-11-13T09:53:39.284Z,22496.00
2022-11-13T09:54:39.355Z,21760.00
2022-11-13T09:55:39.227Z,20448.00
2022-11-13T09:56:39.175Z,18912.00
2022-11-13T09:57:39.151Z,16416.00
2022-11-13T09:58:39.101Z,13632.00
2022-11-13T09:59:39.069Z,11544.00
2022-11-13T10:00:39.084Z,10076.00
2022-11-13T10:01:38.994Z,9104.00
2022-11-13T10:02:38.973Z,8408.00
2022-11-13T10:03:59.923Z,8004.00
2022-11-13T10:04:38.877Z,7556.00
2022-11-13T10:05:38.858Z,7336.00
2022-11-13T10:06:38.856Z,5596.00
2022-11-13T10:07:38.768Z,6724.00
2022-11-13T10:08:38.732Z,6904.00
2022-11-13T10:09:38.694Z,6892.00
2022-11-13T10:10:38.762Z,6884.00
2022-11-13T10:11:38.616Z,6828.00
2022-11-13T10:12:38.582Z,6768.00
2022-11-13T10:13:38.569Z,6724.00
2022-11-13T10:14:38.508Z,6672.00
2022-11-13T10:15:38.473Z,6644.00
2022-11-13T10:16:38.432Z,6604.00
2022-11-13T10:17:38.395Z,6592.00
2022-11-13T10:18:38.382Z,6564.00
2022-11-13T10:19:38.318Z,6544.00
2022-11-13T10:20:38.292Z,6504.00
2022-11-13T10:21:38.258Z,6480.00
2022-11-13T10:22:38.206Z,6412.00
2022-11-13T10:23:38.172Z,6372.00
2022-11-13T10:24:38.130Z,6316.00
2022-11-13T10:25:38.096Z,6264.00
2022-11-13T10:26:38.159Z,6212.00
2022-11-13T10:27:38.062Z,6164.00
2022-11-13T10:28:53.490Z,6160.00
2022-11-13T10:29:37.933Z,6080.00
2022-11-13T10:30:37.903Z,6076.00
2022-11-13T10:31:37.897Z,6056.00
2022-11-13T10:32:37.833Z,5976.00
2022-11-13T10:33:37.781Z,5960.00
2022-11-13T10:34:37.770Z,5912.00
2022-11-13T10:35:37.700Z,5884.00
2022-11-13T10:36:37.661Z,5868.00
2022-11-13T10:37:37.640Z,5856.00
2022-11-13T10:38:37.583Z,5808.00
2022-11-13T10:39:37.542Z,5784.00
2022-11-13T10:40:37.518Z,5772.00
2022-11-13T10:41:37.464Z,5768.00
2022-11-13T10:42:37.529Z,5740.00
2022-11-13T10:43:37.388Z,5708.00
2022-11-13T10:44:37.341Z,5676.00
2022-11-13T10:45:37.304Z,5660.00
2022-11-13T10:46:37.278Z,5644.00
2022-11-13T10:48:02.529Z,5632.00
2022-11-13T10:48:37.191Z,5600.00
2022-11-13T10:49:37.142Z,5572.00
2022-11-13T10:50:37.103Z,5556.00
2022-11-13T10:51:37.077Z,5520.00
2022-11-13T10:52:37.020Z,5484.00
2022-11-13T10:53:36.995Z,5472.00
2022-11-13T10:54:36.941Z,5448.00
2022-11-13T10:55:36.892Z,5428.00
2022-11-13T10:56:36.851Z,5388.00
2022-11-13T10:57:36.825Z,5360.00
2022-11-13T10:58:36.875Z,5332.00
2022-11-13T10:59:36.727Z,5312.00
2022-11-13T11:00:36.686Z,5284.00
2022-11-13T11:01:36.679Z,5256.00
2022-11-13T11:02:36.618Z,5244.00
2022-11-13T11:03:36.559Z,5212.00
2022-11-13T11:04:36.518Z,5184.00
2022-11-13T11:05:36.472Z,5140.00
2022-11-13T11:07:12.693Z,5096.00
2022-11-13T11:07:36.439Z,5060.00
2022-11-13T11:08:36.348Z,5052.00
2022-11-13T11:09:36.311Z,5020.00
2022-11-13T11:10:36.272Z,4988.00
2022-11-13T11:11:36.213Z,4972.00
2022-11-13T11:12:36.181Z,4936.00
2022-11-13T11:13:36.144Z,4912.00
2022-11-13T11:14:36.196Z,4900.00
2022-11-13T11:15:36.257Z,4868.00
2022-11-13T11:16:36.001Z,4840.00
2022-11-13T11:17:35.956Z,4816.00
2022-11-13T11:18:35.913Z,4796.00
2022-11-13T11:19:35.885Z,4760.00
2022-11-13T11:20:35.826Z,4728.00
2022-11-13T11:21:35.783Z,4720.00
2022-11-13T11:22:35.747Z,4692.00
2022-11-13T11:23:35.694Z,4664.00
2022-11-13T11:24:35.649Z,4660.00
2022-11-13T11:25:35.618Z,4644.00
2022-11-13T11:26:35.563Z,4620.00
2022-11-13T11:27:35.516Z,4612.00
2022-11-13T11:28:35.474Z,4584.00
2022-11-13T11:29:35.441Z,4576.00
2022-11-13T11:30:35.478Z,4556.00
2022-11-13T11:31:35.340Z,4544.00
2022-11-13T11:32:35.296Z,4524.00
2022-11-13T11:33:35.251Z,4492.00
2022-11-13T11:34:35.221Z,4484.00
2022-11-13T11:35:35.164Z,4472.00
2022-11-13T11:36:35.118Z,4448.00
2022-11-13T11:37:35.074Z,4440.00
2022-11-13T11:38:35.029Z,4420.00
2022-11-13T11:39:35.008Z,4404.00
2022-11-13T11:40:34.943Z,4388.00
2022-11-13T11:41:34.894Z,4368.00
2022-11-13T11:42:34.860Z,4352.00
2022-11-13T11:43:34.817Z,4336.00
2022-11-13T11:44:34.776Z,4316.00
2022-11-13T11:45:34.729Z,4300.00
2022-11-13T11:46:34.768Z,4292.00
2022-11-13T11:47:34.627Z,4288.00
2022-11-13T11:48:34.585Z,4264.00
2022-11-13T11:49:34.542Z,4236.00
2022-11-13T11:50:34.516Z,4200.00
2022-11-13T11:51:34.461Z,4172.00
2022-11-13T11:52:34.405Z,4156.00
2022-11-13T11:53:34.358Z,4140.00
2022-11-13T11:54:34.321Z,4120.00
2022-11-13T11:55:34.283Z,4104.00
2022-11-13T11:56:34.223Z,4068.00
2022-11-13T11:57:34.180Z,4052.00
2022-11-13T11:58:34.136Z,4044.00
2022-11-13T11:59:34.087Z,4012.00
2022-11-13T12:00:34.073Z,3992.00
2022-11-13T12:01:33.998Z,3480.00
2022-11-13T12:02:34.058Z,3980.00
2022-11-13T12:03:33.924Z,3948.00
2022-11-13T12:04:33.937Z,3928.00
2022-11-13T12:05:33.980Z,3880.00
2022-11-13T12:06:33.774Z,3868.00
2022-11-13T12:07:33.740Z,3840.00
2022-11-13T12:08:33.681Z,3800.00
2022-11-13T12:09:33.638Z,3760.00
2022-11-13T12:10:33.611Z,3720.00
2022-11-13T12:11:33.551Z,3684.00
2022-11-13T12:12:33.503Z,3648.00
2022-11-13T12:13:33.461Z,3616.00
2022-11-13T12:14:33.409Z,3584.00
2022-11-13T12:15:33.363Z,3556.00
2022-11-13T12:16:33.330Z,3520.00
2022-11-13T12:17:33.271Z,3480.00
2022-11-13T12:18:33.316Z,3456.00
2022-11-13T12:19:33.194Z,3416.00
2022-11-13T12:20:33.148Z,3384.00
2022-11-13T12:21:33.106Z,3364.00
2022-11-13T12:22:33.046Z,3336.00
2022-11-13T12:23:33.001Z,3320.00
2022-11-13T12:24:32.966Z,3288.00
2022-11-13T12:25:32.910Z,3260.00
2022-11-13T12:26:32.882Z,3236.00
2022-11-13T12:27:32.819Z,3212.00
2022-11-13T12:28:35.938Z,3196.00
2022-11-13T12:29:32.729Z,3168.00
2022-11-13T12:30:32.682Z,3148.00
2022-11-13T12:31:32.649Z,3120.00
2022-11-13T12:32:32.618Z,3092.00
2022-11-13T12:33:32.548Z,3068.00
2022-11-13T12:34:32.615Z,3052.00
2022-11-13T12:35:32.475Z,3028.00
2022-11-13T12:36:32.423Z,3012.00
2022-11-13T12:37:32.361Z,2996.00